Caseyville, IL (62232)

1:45 AM CDT on August 31, 2015 (GMT -0500)
Tim and Carolyns yard | | Change Station
CLOSE
Current Station
Personal Weather Station
Location: COLLINSVILLE, IL
Elevation: 566 ft
Nearby Weather Stations

Elev 566 ft 38.66 °N, 89.99 °W | Updated 15 seconds ago

Partly Cloudy
Partly Cloudy
75.4 °F
Feels Like 75 °F
N
0.2
Wind Variable Wind from West
Gusts 2.5 mph

Today
High -- | Low -- °F
--% Chance of Precip.
Yesterday
High -- | Low -- °F
Precip. -- in
6:28 AM 7:31 PM
Waning Gibbous, 97% visible
Pressure 30.00 in
Visibility 10.0 miles
Clouds Overcast 10000 ft
Heat Index 75 °F
Dew Point 73 °F
Humidity 92%
Rainfall 0.00 in
Snow Depth Not available.
UV 0.0 out of 12
Pollen 10.60 out of 12
Air Quality Not available.
Flu Activity Not available.
METAR KCPS 310553Z AUTO 15003KT 10SM OVC100 24/22 A3001 RMK AO2 SLP158 T02440217 10272 20233 403170183 55000
Pressure 30.00 in
Visibility 10.0 miles
Clouds Overcast 10000 ft
Heat Index 75 °F
Dew Point 73 °F
Humidity 92%
Rainfall 0.00 in
Snow Depth Not available.
UV 0.0 out of 12
Pollen 10.60 out of 12
Air Quality Not available.
Flu Activity Not available.
METAR KCPS 310553Z AUTO 15003KT 10SM OVC100 24/22 A3001 RMK AO2 SLP158 T02440217 10272 20233 403170183 55000

10-Day Weather Forecast

×

Almanac

Astronomy

Aug. 31, 2015 Rise Set
Actual Time
Civil Twilight
Nautical Twilight
Astronomical Twilight
Moon
Length of Visible Light
Length of Day
Tomorrow will be .
, % of the Moon is Illuminated

Today's Extremes

State Highs State Lows

Community

WunderPhotos

Upload Photos

1,851,217 photos uploaded!

WunderBlogs® & News

Nearby

Air Quality

  Air Quality AQ Index Pollutant
Not available.

Snow Depth

Station Depth Elevation

Earthquake Activity

City Distance Mag. Time & Date
Minimum magnitude displayed is 2.5.

Coastal Water Temperatures

Place Temperature

Stations

Nearby Weather Stations

Station Location Temp. Windchill Dew Point Humidity Wind Precip. Elev Updated Type